sensor_id;sensor_type;location;lat;lon;timestamp;P1;durP1;ratioP1;P2;durP2;ratioP2
8001;SDS011;4046;48.774;8.732;2022-12-08T00:01:17;1.53;;;1.43;;
8001;SDS011;4046;48.774;8.732;2022-12-08T00:03:44;2.10;;;2.00;;
8001;SDS011;4046;48.774;8.732;2022-12-08T00:06:22;1.70;;;1.60;;
8001;SDS011;4046;48.774;8.732;2022-12-08T00:09:12;1.60;;;1.50;;
8001;SDS011;4046;48.774;8.732;2022-12-08T00:11:52;1.90;;;1.80;;
8001;SDS011;4046;48.774;8.732;2022-12-08T00:14:30;1.70;;;1.60;;
8001;SDS011;4046;48.774;8.732;2022-12-08T00:16:58;1.70;;;1.60;;
8001;SDS011;4046;48.774;8.732;2022-12-08T00:19:25;1.93;;;1.83;;
8001;SDS011;4046;48.774;8.732;2022-12-08T00:21:52;1.57;;;1.47;;
8001;SDS011;4046;48.774;8.732;2022-12-08T00:24:19;1.73;;;1.63;;
8001;SDS011;4046;48.774;8.732;2022-12-08T00:26:47;1.80;;;1.70;;
8001;SDS011;4046;48.774;8.732;2022-12-08T00:29:13;2.00;;;1.90;;
8001;SDS011;4046;48.774;8.732;2022-12-08T00:31:40;1.60;;;1.50;;
8001;SDS011;4046;48.774;8.732;2022-12-08T00:34:06;1.87;;;1.77;;
8001;SDS011;4046;48.774;8.732;2022-12-08T00:36:32;1.90;;;1.80;;
8001;SDS011;4046;48.774;8.732;2022-12-08T00:38:59;1.80;;;1.70;;
8001;SDS011;4046;48.774;8.732;2022-12-08T00:41:26;2.10;;;2.00;;
8001;SDS011;4046;48.774;8.732;2022-12-08T00:44:12;2.00;;;1.90;;
8001;SDS011;4046;48.774;8.732;2022-12-08T00:46:40;1.90;;;1.80;;
8001;SDS011;4046;48.774;8.732;2022-12-08T00:49:06;1.87;;;1.77;;
8001;SDS011;4046;48.774;8.732;2022-12-08T00:51:33;1.80;;;1.70;;
8001;SDS011;4046;48.774;8.732;2022-12-08T00:53:59;2.43;;;1.60;;
8001;SDS011;4046;48.774;8.732;2022-12-08T00:56:25;1.80;;;1.70;;
8001;SDS011;4046;48.774;8.732;2022-12-08T00:58:52;2.00;;;1.90;;
8001;SDS011;4046;48.774;8.732;2022-12-08T01:01:18;1.97;;;1.87;;
8001;SDS011;4046;48.774;8.732;2022-12-08T01:03:44;1.90;;;1.80;;
8001;SDS011;4046;48.774;8.732;2022-12-08T01:06:10;2.00;;;1.90;;
8001;SDS011;4046;48.774;8.732;2022-12-08T01:08:37;1.90;;;1.80;;
8001;SDS011;4046;48.774;8.732;2022-12-08T01:11:08;1.83;;;1.73;;
8001;SDS011;4046;48.774;8.732;2022-12-08T01:13:37;1.87;;;1.77;;
8001;SDS011;4046;48.774;8.732;2022-12-08T01:16:04;1.80;;;1.70;;
8001;SDS011;4046;48.774;8.732;2022-12-08T01:18:30;1.80;;;1.70;;
8001;SDS011;4046;48.774;8.732;2022-12-08T01:21:03;2.10;;;2.00;;
8001;SDS011;4046;48.774;8.732;2022-12-08T01:23:31;1.90;;;1.80;;
8001;SDS011;4046;48.774;8.732;2022-12-08T01:26:00;1.97;;;1.87;;
8001;SDS011;4046;48.774;8.732;2022-12-08T01:28:30;2.10;;;2.00;;
8001;SDS011;4046;48.774;8.732;2022-12-08T01:30:57;1.90;;;1.80;;
8001;SDS011;4046;48.774;8.732;2022-12-08T01:33:24;1.80;;;1.70;;
8001;SDS011;4046;48.774;8.732;2022-12-08T01:35:51;2.00;;;1.90;;
8001;SDS011;4046;48.774;8.732;2022-12-08T01:38:17;2.10;;;2.00;;
8001;SDS011;4046;48.774;8.732;2022-12-08T01:40:44;2.00;;;1.90;;
8001;SDS011;4046;48.774;8.732;2022-12-08T01:43:17;2.10;;;2.00;;
8001;SDS011;4046;48.774;8.732;2022-12-08T01:45:45;1.80;;;1.70;;
8001;SDS011;4046;48.774;8.732;2022-12-08T01:48:13;1.70;;;1.60;;
8001;SDS011;4046;48.774;8.732;2022-12-08T01:50:46;1.90;;;1.80;;
8001;SDS011;4046;48.774;8.732;2022-12-08T01:53:15;2.10;;;2.00;;
8001;SDS011;4046;48.774;8.732;2022-12-08T01:55:49;1.80;;;1.70;;
8001;SDS011;4046;48.774;8.732;2022-12-08T01:58:21;1.80;;;1.70;;
8001;SDS011;4046;48.774;8.732;2022-12-08T02:00:54;1.87;;;1.77;;
8001;SDS011;4046;48.774;8.732;2022-12-08T02:03:23;1.90;;;1.80;;
8001;SDS011;4046;48.774;8.732;2022-12-08T02:05:56;2.00;;;1.90;;
8001;SDS011;4046;48.774;8.732;2022-12-08T02:08:23;1.80;;;1.70;;
8001;SDS011;4046;48.774;8.732;2022-12-08T02:10:50;1.70;;;1.60;;
8001;SDS011;4046;48.774;8.732;2022-12-08T02:13:18;1.83;;;1.73;;
8001;SDS011;4046;48.774;8.732;2022-12-08T02:26:28;2.00;;;1.90;;
8001;SDS011;4046;48.774;8.732;2022-12-08T02:29:25;1.60;;;1.50;;
8001;SDS011;4046;48.774;8.732;2022-12-08T02:32:05;2.00;;;1.90;;
8001;SDS011;4046;48.774;8.732;2022-12-08T02:34:39;1.77;;;1.67;;
8001;SDS011;4046;48.774;8.732;2022-12-08T02:37:14;2.20;;;2.10;;
8001;SDS011;4046;48.774;8.732;2022-12-08T02:42:37;1.60;;;1.50;;
8001;SDS011;4046;48.774;8.732;2022-12-08T02:45:11;2.33;;;2.13;;
8001;SDS011;4046;48.774;8.732;2022-12-08T02:47:55;2.20;;;1.90;;
8001;SDS011;4046;48.774;8.732;2022-12-08T02:50:23;1.97;;;1.87;;
8001;SDS011;4046;48.774;8.732;2022-12-08T02:52:50;1.80;;;1.70;;
8001;SDS011;4046;48.774;8.732;2022-12-08T02:55:21;1.93;;;1.83;;
8001;SDS011;4046;48.774;8.732;2022-12-08T03:00:43;1.77;;;1.67;;
8001;SDS011;4046;48.774;8.732;2022-12-08T03:08:58;1.83;;;1.73;;
8001;SDS011;4046;48.774;8.732;2022-12-08T03:11:41;2.10;;;2.00;;
8001;SDS011;4046;48.774;8.732;2022-12-08T03:14:17;1.93;;;1.83;;
8001;SDS011;4046;48.774;8.732;2022-12-08T03:16:46;1.97;;;1.87;;
8001;SDS011;4046;48.774;8.732;2022-12-08T03:19:18;1.80;;;1.70;;
8001;SDS011;4046;48.774;8.732;2022-12-08T03:21:49;1.90;;;1.80;;
8001;SDS011;4046;48.774;8.732;2022-12-08T03:24:17;2.23;;;2.13;;
8001;SDS011;4046;48.774;8.732;2022-12-08T03:26:50;1.70;;;1.60;;
8001;SDS011;4046;48.774;8.732;2022-12-08T03:29:28;2.17;;;2.07;;
8001;SDS011;4046;48.774;8.732;2022-12-08T03:31:57;2.00;;;1.90;;
8001;SDS011;4046;48.774;8.732;2022-12-08T03:34:28;1.70;;;1.60;;
8001;SDS011;4046;48.774;8.732;2022-12-08T03:36:55;2.07;;;1.97;;
8001;SDS011;4046;48.774;8.732;2022-12-08T03:39:24;2.10;;;2.00;;
8001;SDS011;4046;48.774;8.732;2022-12-08T03:41:50;1.67;;;1.57;;
8001;SDS011;4046;48.774;8.732;2022-12-08T03:44:17;1.80;;;1.70;;
8001;SDS011;4046;48.774;8.732;2022-12-08T03:46:43;2.20;;;2.10;;
8001;SDS011;4046;48.774;8.732;2022-12-08T03:49:10;1.80;;;1.70;;
8001;SDS011;4046;48.774;8.732;2022-12-08T03:51:36;1.70;;;1.60;;
8001;SDS011;4046;48.774;8.732;2022-12-08T03:54:03;2.03;;;1.93;;
8001;SDS011;4046;48.774;8.732;2022-12-08T03:56:30;2.20;;;2.10;;
8001;SDS011;4046;48.774;8.732;2022-12-08T03:58:59;2.20;;;2.10;;
8001;SDS011;4046;48.774;8.732;2022-12-08T04:01:25;2.17;;;2.07;;
8001;SDS011;4046;48.774;8.732;2022-12-08T04:03:52;2.37;;;2.17;;
8001;SDS011;4046;48.774;8.732;2022-12-08T04:06:18;2.10;;;2.00;;
8001;SDS011;4046;48.774;8.732;2022-12-08T04:08:45;1.90;;;1.80;;
8001;SDS011;4046;48.774;8.732;2022-12-08T04:11:11;1.90;;;1.80;;
8001;SDS011;4046;48.774;8.732;2022-12-08T04:13:39;2.20;;;2.10;;
8001;SDS011;4046;48.774;8.732;2022-12-08T04:16:07;1.97;;;1.87;;
8001;SDS011;4046;48.774;8.732;2022-12-08T04:18:33;1.80;;;1.70;;
8001;SDS011;4046;48.774;8.732;2022-12-08T04:21:00;1.93;;;1.83;;
8001;SDS011;4046;48.774;8.732;2022-12-08T04:23:27;1.90;;;1.80;;
8001;SDS011;4046;48.774;8.732;2022-12-08T04:25:53;1.93;;;1.83;;
8001;SDS011;4046;48.774;8.732;2022-12-08T04:28:19;2.07;;;1.97;;
8001;SDS011;4046;48.774;8.732;2022-12-08T04:30:46;1.80;;;1.70;;
8001;SDS011;4046;48.774;8.732;2022-12-08T04:33:13;2.47;;;2.37;;
8001;SDS011;4046;48.774;8.732;2022-12-08T04:35:39;2.00;;;1.90;;
8001;SDS011;4046;48.774;8.732;2022-12-08T04:38:05;1.87;;;1.77;;
8001;SDS011;4046;48.774;8.732;2022-12-08T04:40:31;2.23;;;2.13;;
8001;SDS011;4046;48.774;8.732;2022-12-08T04:42:58;1.90;;;1.80;;
8001;SDS011;4046;48.774;8.732;2022-12-08T04:45:24;2.23;;;2.13;;
8001;SDS011;4046;48.774;8.732;2022-12-08T04:47:50;2.07;;;1.97;;
8001;SDS011;4046;48.774;8.732;2022-12-08T04:50:16;2.00;;;1.90;;
8001;SDS011;4046;48.774;8.732;2022-12-08T04:52:42;2.20;;;2.10;;
8001;SDS011;4046;48.774;8.732;2022-12-08T04:55:09;2.00;;;1.90;;
8001;SDS011;4046;48.774;8.732;2022-12-08T04:57:35;1.87;;;1.77;;
8001;SDS011;4046;48.774;8.732;2022-12-08T05:00:02;1.77;;;1.67;;
8001;SDS011;4046;48.774;8.732;2022-12-08T05:02:29;2.20;;;2.10;;
8001;SDS011;4046;48.774;8.732;2022-12-08T05:04:57;2.50;;;2.30;;
8001;SDS011;4046;48.774;8.732;2022-12-08T05:07:23;2.10;;;2.00;;
8001;SDS011;4046;48.774;8.732;2022-12-08T05:09:49;2.00;;;1.90;;
8001;SDS011;4046;48.774;8.732;2022-12-08T05:12:16;1.83;;;1.73;;
8001;SDS011;4046;48.774;8.732;2022-12-08T05:14:42;1.83;;;1.73;;
8001;SDS011;4046;48.774;8.732;2022-12-08T05:17:08;2.00;;;1.80;;
8001;SDS011;4046;48.774;8.732;2022-12-08T05:19:34;1.90;;;1.80;;
8001;SDS011;4046;48.774;8.732;2022-12-08T05:22:00;2.00;;;1.90;;
8001;SDS011;4046;48.774;8.732;2022-12-08T05:24:26;1.90;;;1.80;;
8001;SDS011;4046;48.774;8.732;2022-12-08T05:26:53;1.97;;;1.87;;
8001;SDS011;4046;48.774;8.732;2022-12-08T05:29:19;1.60;;;1.50;;
8001;SDS011;4046;48.774;8.732;2022-12-08T05:31:45;1.90;;;1.80;;
8001;SDS011;4046;48.774;8.732;2022-12-08T05:34:11;2.00;;;1.90;;
8001;SDS011;4046;48.774;8.732;2022-12-08T05:36:38;1.90;;;1.80;;
8001;SDS011;4046;48.774;8.732;2022-12-08T05:39:04;2.03;;;1.93;;
8001;SDS011;4046;48.774;8.732;2022-12-08T05:41:30;1.90;;;1.70;;
8001;SDS011;4046;48.774;8.732;2022-12-08T05:43:57;1.70;;;1.60;;
8001;SDS011;4046;48.774;8.732;2022-12-08T05:46:23;1.80;;;1.70;;
8001;SDS011;4046;48.774;8.732;2022-12-08T05:48:49;1.80;;;1.70;;
8001;SDS011;4046;48.774;8.732;2022-12-08T05:51:17;1.60;;;1.50;;
8001;SDS011;4046;48.774;8.732;2022-12-08T05:53:45;1.83;;;1.73;;
8001;SDS011;4046;48.774;8.732;2022-12-08T05:56:12;1.83;;;1.73;;
8001;SDS011;4046;48.774;8.732;2022-12-08T05:58:38;2.00;;;1.90;;
8001;SDS011;4046;48.774;8.732;2022-12-08T06:01:05;2.00;;;1.90;;
8001;SDS011;4046;48.774;8.732;2022-12-08T06:03:31;1.80;;;1.70;;
8001;SDS011;4046;48.774;8.732;2022-12-08T06:05:58;1.93;;;1.83;;
8001;SDS011;4046;48.774;8.732;2022-12-08T06:08:24;1.80;;;1.70;;
8001;SDS011;4046;48.774;8.732;2022-12-08T06:10:50;1.70;;;1.60;;
8001;SDS011;4046;48.774;8.732;2022-12-08T06:13:16;1.87;;;1.77;;
8001;SDS011;4046;48.774;8.732;2022-12-08T06:15:43;1.70;;;1.60;;
8001;SDS011;4046;48.774;8.732;2022-12-08T06:18:09;1.70;;;1.60;;
8001;SDS011;4046;48.774;8.732;2022-12-08T06:20:36;1.57;;;1.47;;
8001;SDS011;4046;48.774;8.732;2022-12-08T06:23:02;2.10;;;2.00;;
8001;SDS011;4046;48.774;8.732;2022-12-08T06:25:28;1.80;;;1.70;;
8001;SDS011;4046;48.774;8.732;2022-12-08T06:27:55;1.73;;;1.63;;
8001;SDS011;4046;48.774;8.732;2022-12-08T06:30:21;1.70;;;1.60;;
8001;SDS011;4046;48.774;8.732;2022-12-08T06:32:47;1.60;;;1.50;;
8001;SDS011;4046;48.774;8.732;2022-12-08T06:35:13;2.23;;;2.13;;
8001;SDS011;4046;48.774;8.732;2022-12-08T06:37:39;1.73;;;1.63;;
8001;SDS011;4046;48.774;8.732;2022-12-08T06:40:06;1.70;;;1.60;;
8001;SDS011;4046;48.774;8.732;2022-12-08T06:42:33;1.83;;;1.73;;
8001;SDS011;4046;48.774;8.732;2022-12-08T06:45:09;1.87;;;1.77;;
8001;SDS011;4046;48.774;8.732;2022-12-08T06:47:36;2.00;;;1.90;;
8001;SDS011;4046;48.774;8.732;2022-12-08T06:50:03;1.87;;;1.77;;
8001;SDS011;4046;48.774;8.732;2022-12-08T06:52:31;1.90;;;1.80;;
8001;SDS011;4046;48.774;8.732;2022-12-08T06:54:57;1.90;;;1.80;;
8001;SDS011;4046;48.774;8.732;2022-12-08T06:57:23;1.90;;;1.80;;
8001;SDS011;4046;48.774;8.732;2022-12-08T06:59:50;1.77;;;1.67;;
8001;SDS011;4046;48.774;8.732;2022-12-08T07:02:16;1.60;;;1.50;;
8001;SDS011;4046;48.774;8.732;2022-12-08T07:04:42;1.60;;;1.50;;
8001;SDS011;4046;48.774;8.732;2022-12-08T07:07:09;1.63;;;1.53;;
8001;SDS011;4046;48.774;8.732;2022-12-08T07:09:35;1.97;;;1.87;;
8001;SDS011;4046;48.774;8.732;2022-12-08T07:12:02;2.00;;;1.90;;
8001;SDS011;4046;48.774;8.732;2022-12-08T07:14:29;1.90;;;1.80;;
8001;SDS011;4046;48.774;8.732;2022-12-08T07:16:55;1.87;;;1.77;;
8001;SDS011;4046;48.774;8.732;2022-12-08T07:19:21;1.70;;;1.60;;
8001;SDS011;4046;48.774;8.732;2022-12-08T07:21:47;1.73;;;1.63;;
8001;SDS011;4046;48.774;8.732;2022-12-08T07:24:14;2.00;;;1.90;;
8001;SDS011;4046;48.774;8.732;2022-12-08T07:26:40;1.83;;;1.70;;
8001;SDS011;4046;48.774;8.732;2022-12-08T07:29:06;1.80;;;1.70;;
8001;SDS011;4046;48.774;8.732;2022-12-08T07:31:34;1.80;;;1.70;;
8001;SDS011;4046;48.774;8.732;2022-12-08T07:34:00;1.70;;;1.60;;
8001;SDS011;4046;48.774;8.732;2022-12-08T07:36:26;1.87;;;1.77;;
8001;SDS011;4046;48.774;8.732;2022-12-08T07:38:52;2.07;;;1.97;;
8001;SDS011;4046;48.774;8.732;2022-12-08T07:41:20;1.70;;;1.60;;
8001;SDS011;4046;48.774;8.732;2022-12-08T07:43:48;1.80;;;1.70;;
8001;SDS011;4046;48.774;8.732;2022-12-08T07:46:15;1.90;;;1.80;;
8001;SDS011;4046;48.774;8.732;2022-12-08T07:48:43;1.67;;;1.57;;
8001;SDS011;4046;48.774;8.732;2022-12-08T07:51:10;1.67;;;1.57;;
8001;SDS011;4046;48.774;8.732;2022-12-08T07:53:39;1.70;;;1.60;;
8001;SDS011;4046;48.774;8.732;2022-12-08T07:56:06;1.80;;;1.70;;
8001;SDS011;4046;48.774;8.732;2022-12-08T07:58:33;2.00;;;1.90;;
8001;SDS011;4046;48.774;8.732;2022-12-08T08:00:59;2.07;;;1.97;;
8001;SDS011;4046;48.774;8.732;2022-12-08T08:03:26;1.80;;;1.70;;
8001;SDS011;4046;48.774;8.732;2022-12-08T08:05:52;2.03;;;1.93;;
8001;SDS011;4046;48.774;8.732;2022-12-08T08:08:18;2.10;;;2.00;;
8001;SDS011;4046;48.774;8.732;2022-12-08T08:10:45;1.70;;;1.60;;
8001;SDS011;4046;48.774;8.732;2022-12-08T08:13:12;1.80;;;1.70;;
8001;SDS011;4046;48.774;8.732;2022-12-08T08:15:38;1.90;;;1.80;;
8001;SDS011;4046;48.774;8.732;2022-12-08T08:18:05;1.67;;;1.57;;
8001;SDS011;4046;48.774;8.732;2022-12-08T08:20:32;1.50;;;1.40;;
8001;SDS011;4046;48.774;8.732;2022-12-08T08:22:58;1.90;;;1.80;;
8001;SDS011;4046;48.774;8.732;2022-12-08T08:25:24;2.00;;;1.90;;
8001;SDS011;4046;48.774;8.732;2022-12-08T08:27:51;2.07;;;1.97;;
8001;SDS011;4046;48.774;8.732;2022-12-08T08:30:17;1.90;;;1.80;;
8001;SDS011;4046;48.774;8.732;2022-12-08T08:32:43;1.93;;;1.83;;
8001;SDS011;4046;48.774;8.732;2022-12-08T08:35:09;1.87;;;1.77;;
8001;SDS011;4046;48.774;8.732;2022-12-08T08:37:36;1.60;;;1.50;;
8001;SDS011;4046;48.774;8.732;2022-12-08T08:40:02;1.80;;;1.70;;
8001;SDS011;4046;48.774;8.732;2022-12-08T08:42:29;1.97;;;1.87;;
8001;SDS011;4046;48.774;8.732;2022-12-08T08:44:55;1.60;;;1.50;;
8001;SDS011;4046;48.774;8.732;2022-12-08T08:47:21;1.80;;;1.70;;
8001;SDS011;4046;48.774;8.732;2022-12-08T08:49:48;1.70;;;1.60;;
8001;SDS011;4046;48.774;8.732;2022-12-08T08:52:14;1.80;;;1.70;;
8001;SDS011;4046;48.774;8.732;2022-12-08T08:54:40;1.90;;;1.80;;
8001;SDS011;4046;48.774;8.732;2022-12-08T08:57:07;1.80;;;1.70;;
8001;SDS011;4046;48.774;8.732;2022-12-08T08:59:33;2.00;;;1.90;;
8001;SDS011;4046;48.774;8.732;2022-12-08T09:01:59;1.90;;;1.80;;
8001;SDS011;4046;48.774;8.732;2022-12-08T09:04:26;1.70;;;1.60;;
8001;SDS011;4046;48.774;8.732;2022-12-08T09:06:52;1.83;;;1.73;;
8001;SDS011;4046;48.774;8.732;2022-12-08T09:09:18;1.90;;;1.80;;
8001;SDS011;4046;48.774;8.732;2022-12-08T09:11:44;1.90;;;1.80;;
8001;SDS011;4046;48.774;8.732;2022-12-08T09:14:11;1.80;;;1.70;;
8001;SDS011;4046;48.774;8.732;2022-12-08T09:16:39;1.93;;;1.83;;
8001;SDS011;4046;48.774;8.732;2022-12-08T09:19:05;1.70;;;1.60;;
8001;SDS011;4046;48.774;8.732;2022-12-08T09:21:31;1.60;;;1.50;;
8001;SDS011;4046;48.774;8.732;2022-12-08T09:23:58;1.80;;;1.70;;
8001;SDS011;4046;48.774;8.732;2022-12-08T09:26:25;2.03;;;1.93;;
8001;SDS011;4046;48.774;8.732;2022-12-08T09:28:52;2.03;;;1.93;;
8001;SDS011;4046;48.774;8.732;2022-12-08T09:31:20;1.70;;;1.50;;
8001;SDS011;4046;48.774;8.732;2022-12-08T09:33:47;1.50;;;1.40;;
8001;SDS011;4046;48.774;8.732;2022-12-08T09:36:16;1.80;;;1.70;;
8001;SDS011;4046;48.774;8.732;2022-12-08T09:38:42;1.90;;;1.80;;
8001;SDS011;4046;48.774;8.732;2022-12-08T09:41:42;1.90;;;1.80;;
8001;SDS011;4046;48.774;8.732;2022-12-08T09:44:34;1.50;;;1.40;;
8001;SDS011;4046;48.774;8.732;2022-12-08T09:50:15;1.87;;;1.77;;
8001;SDS011;4046;48.774;8.732;2022-12-08T09:53:08;1.60;;;1.50;;
8001;SDS011;4046;48.774;8.732;2022-12-08T09:55:42;1.90;;;1.80;;
8001;SDS011;4046;48.774;8.732;2022-12-08T10:01:14;1.70;;;1.60;;
8001;SDS011;4046;48.774;8.732;2022-12-08T10:03:41;1.83;;;1.73;;
8001;SDS011;4046;48.774;8.732;2022-12-08T10:06:18;1.60;;;1.50;;
8001;SDS011;4046;48.774;8.732;2022-12-08T10:09:02;1.60;;;1.50;;
8001;SDS011;4046;48.774;8.732;2022-12-08T10:11:41;1.60;;;1.50;;
8001;SDS011;4046;48.774;8.732;2022-12-08T10:17:19;1.60;;;1.50;;
8001;SDS011;4046;48.774;8.732;2022-12-08T10:20:00;1.63;;;1.53;;
8001;SDS011;4046;48.774;8.732;2022-12-08T10:22:32;1.67;;;1.57;;
8001;SDS011;4046;48.774;8.732;2022-12-08T10:25:00;1.57;;;1.47;;
8001;SDS011;4046;48.774;8.732;2022-12-08T10:27:35;2.33;;;1.63;;
8001;SDS011;4046;48.774;8.732;2022-12-08T10:30:11;1.60;;;1.50;;
8001;SDS011;4046;48.774;8.732;2022-12-08T10:32:39;1.57;;;1.47;;
8001;SDS011;4046;48.774;8.732;2022-12-08T10:35:10;1.70;;;1.60;;
8001;SDS011;4046;48.774;8.732;2022-12-08T10:37:38;1.70;;;1.50;;
8001;SDS011;4046;48.774;8.732;2022-12-08T10:40:08;1.97;;;1.87;;
8001;SDS011;4046;48.774;8.732;2022-12-08T10:42:36;1.60;;;1.50;;
8001;SDS011;4046;48.774;8.732;2022-12-08T10:48:03;1.63;;;1.53;;
8001;SDS011;4046;48.774;8.732;2022-12-08T10:50:41;1.83;;;1.73;;
8001;SDS011;4046;48.774;8.732;2022-12-08T10:53:22;1.80;;;1.70;;
8001;SDS011;4046;48.774;8.732;2022-12-08T11:01:08;1.60;;;1.50;;
8001;SDS011;4046;48.774;8.732;2022-12-08T11:08:55;1.70;;;1.60;;
8001;SDS011;4046;48.774;8.732;2022-12-08T11:11:43;1.70;;;1.60;;
8001;SDS011;4046;48.774;8.732;2022-12-08T11:14:18;1.60;;;1.50;;
8001;SDS011;4046;48.774;8.732;2022-12-08T11:16:53;1.57;;;1.47;;
8001;SDS011;4046;48.774;8.732;2022-12-08T11:19:27;1.93;;;1.83;;
8001;SDS011;4046;48.774;8.732;2022-12-08T11:21:53;1.60;;;1.50;;
8001;SDS011;4046;48.774;8.732;2022-12-08T11:24:21;1.50;;;1.40;;
8001;SDS011;4046;48.774;8.732;2022-12-08T11:26:59;1.60;;;1.50;;
8001;SDS011;4046;48.774;8.732;2022-12-08T11:29:33;1.70;;;1.60;;
8001;SDS011;4046;48.774;8.732;2022-12-08T11:32:12;1.60;;;1.50;;
8001;SDS011;4046;48.774;8.732;2022-12-08T11:34:47;1.50;;;1.33;;
8001;SDS011;4046;48.774;8.732;2022-12-08T11:37:36;1.53;;;1.43;;
8001;SDS011;4046;48.774;8.732;2022-12-08T11:40:06;1.50;;;1.40;;
8001;SDS011;4046;48.774;8.732;2022-12-08T11:42:50;1.60;;;1.50;;
8001;SDS011;4046;48.774;8.732;2022-12-08T11:45:19;1.70;;;1.60;;
8001;SDS011;4046;48.774;8.732;2022-12-08T11:47:56;1.40;;;1.30;;
8001;SDS011;4046;48.774;8.732;2022-12-08T11:50:30;1.50;;;1.40;;
8001;SDS011;4046;48.774;8.732;2022-12-08T11:53:05;1.80;;;1.70;;
8001;SDS011;4046;48.774;8.732;2022-12-08T11:55:59;1.63;;;1.53;;
8001;SDS011;4046;48.774;8.732;2022-12-08T11:58:46;1.87;;;1.50;;
8001;SDS011;4046;48.774;8.732;2022-12-08T12:01:36;1.83;;;1.73;;
8001;SDS011;4046;48.774;8.732;2022-12-08T12:05:04;1.60;;;1.50;;
8001;SDS011;4046;48.774;8.732;2022-12-08T12:18:02;2.10;;;2.00;;
8001;SDS011;4046;48.774;8.732;2022-12-08T12:20:58;1.50;;;1.40;;
8001;SDS011;4046;48.774;8.732;2022-12-08T12:23:35;1.70;;;1.60;;
8001;SDS011;4046;48.774;8.732;2022-12-08T12:26:19;1.60;;;1.50;;
8001;SDS011;4046;48.774;8.732;2022-12-08T12:28:51;1.60;;;1.50;;
8001;SDS011;4046;48.774;8.732;2022-12-08T12:31:31;1.60;;;1.50;;
8001;SDS011;4046;48.774;8.732;2022-12-08T12:34:27;1.40;;;1.30;;
8001;SDS011;4046;48.774;8.732;2022-12-08T12:36:55;1.63;;;1.53;;
8001;SDS011;4046;48.774;8.732;2022-12-08T12:39:33;1.57;;;1.47;;
8001;SDS011;4046;48.774;8.732;2022-12-08T12:42:11;1.50;;;1.40;;
8001;SDS011;4046;48.774;8.732;2022-12-08T12:47:44;1.40;;;1.30;;
8001;SDS011;4046;48.774;8.732;2022-12-08T12:50:36;1.73;;;1.63;;
8001;SDS011;4046;48.774;8.732;2022-12-08T12:56:01;1.60;;;1.50;;
8001;SDS011;4046;48.774;8.732;2022-12-08T13:03:32;1.43;;;1.33;;
8001;SDS011;4046;48.774;8.732;2022-12-08T13:05:59;1.40;;;1.30;;
8001;SDS011;4046;48.774;8.732;2022-12-08T13:08:25;1.50;;;1.40;;
8001;SDS011;4046;48.774;8.732;2022-12-08T13:10:57;1.53;;;1.33;;
8001;SDS011;4046;48.774;8.732;2022-12-08T13:13:29;1.37;;;1.27;;
8001;SDS011;4046;48.774;8.732;2022-12-08T13:15:59;1.40;;;1.30;;
8001;SDS011;4046;48.774;8.732;2022-12-08T13:18:47;1.53;;;1.43;;
8001;SDS011;4046;48.774;8.732;2022-12-08T13:21:15;1.40;;;1.27;;
8001;SDS011;4046;48.774;8.732;2022-12-08T13:23:49;1.33;;;1.23;;
8001;SDS011;4046;48.774;8.732;2022-12-08T13:29:28;1.40;;;1.30;;
8001;SDS011;4046;48.774;8.732;2022-12-08T13:32:02;1.37;;;1.20;;
8001;SDS011;4046;48.774;8.732;2022-12-08T13:34:50;1.50;;;1.40;;
8001;SDS011;4046;48.774;8.732;2022-12-08T13:37:24;1.50;;;1.40;;
8001;SDS011;4046;48.774;8.732;2022-12-08T13:40:01;1.40;;;1.30;;
8001;SDS011;4046;48.774;8.732;2022-12-08T13:42:48;1.40;;;1.30;;
8001;SDS011;4046;48.774;8.732;2022-12-08T13:45:23;1.50;;;1.40;;
8001;SDS011;4046;48.774;8.732;2022-12-08T13:50:54;1.40;;;1.30;;
8001;SDS011;4046;48.774;8.732;2022-12-08T13:53:27;1.50;;;1.40;;
8001;SDS011;4046;48.774;8.732;2022-12-08T13:55:56;1.60;;;1.50;;
8001;SDS011;4046;48.774;8.732;2022-12-08T13:58:24;1.50;;;1.40;;
8001;SDS011;4046;48.774;8.732;2022-12-08T14:03:25;1.50;;;1.30;;
8001;SDS011;4046;48.774;8.732;2022-12-08T14:05:51;1.60;;;1.50;;
8001;SDS011;4046;48.774;8.732;2022-12-08T14:08:20;1.77;;;1.67;;
8001;SDS011;4046;48.774;8.732;2022-12-08T14:10:58;1.50;;;1.40;;
8001;SDS011;4046;48.774;8.732;2022-12-08T14:13:27;1.30;;;1.20;;
8001;SDS011;4046;48.774;8.732;2022-12-08T14:15:55;1.60;;;1.50;;
8001;SDS011;4046;48.774;8.732;2022-12-08T14:18:26;1.40;;;1.30;;
8001;SDS011;4046;48.774;8.732;2022-12-08T14:21:03;1.50;;;1.33;;
8001;SDS011;4046;48.774;8.732;2022-12-08T14:23:34;1.60;;;1.50;;
8001;SDS011;4046;48.774;8.732;2022-12-08T14:26:02;1.53;;;1.43;;
8001;SDS011;4046;48.774;8.732;2022-12-08T14:28:33;1.40;;;1.30;;
8001;SDS011;4046;48.774;8.732;2022-12-08T14:30:59;1.50;;;1.33;;
8001;SDS011;4046;48.774;8.732;2022-12-08T14:33:25;1.30;;;1.20;;
8001;SDS011;4046;48.774;8.732;2022-12-08T14:35:53;1.63;;;1.53;;
8001;SDS011;4046;48.774;8.732;2022-12-08T14:38:20;1.40;;;1.30;;
8001;SDS011;4046;48.774;8.732;2022-12-08T14:41:00;1.53;;;1.37;;
8001;SDS011;4046;48.774;8.732;2022-12-08T14:43:31;1.37;;;1.17;;
8001;SDS011;4046;48.774;8.732;2022-12-08T14:45:59;1.20;;;1.10;;
8001;SDS011;4046;48.774;8.732;2022-12-08T14:51:04;1.40;;;1.30;;
8001;SDS011;4046;48.774;8.732;2022-12-08T14:56:50;1.40;;;1.30;;
8001;SDS011;4046;48.774;8.732;2022-12-08T14:59:26;1.80;;;1.70;;
8001;SDS011;4046;48.774;8.732;2022-12-08T15:02:11;1.40;;;1.23;;
8001;SDS011;4046;48.774;8.732;2022-12-08T15:04:44;1.50;;;1.40;;
8001;SDS011;4046;48.774;8.732;2022-12-08T15:09:44;1.57;;;1.47;;
8001;SDS011;4046;48.774;8.732;2022-12-08T15:14:40;1.40;;;1.30;;
8001;SDS011;4046;48.774;8.732;2022-12-08T15:19:59;1.30;;;1.20;;
8001;SDS011;4046;48.774;8.732;2022-12-08T15:22:26;1.50;;;1.37;;
8001;SDS011;4046;48.774;8.732;2022-12-08T15:24:55;1.60;;;1.50;;
8001;SDS011;4046;48.774;8.732;2022-12-08T15:27:21;1.40;;;1.13;;
8001;SDS011;4046;48.774;8.732;2022-12-08T15:29:49;1.40;;;1.30;;
8001;SDS011;4046;48.774;8.732;2022-12-08T15:32:17;1.33;;;1.23;;
8001;SDS011;4046;48.774;8.732;2022-12-08T15:34:45;1.57;;;1.47;;
8001;SDS011;4046;48.774;8.732;2022-12-08T15:37:17;1.50;;;1.40;;
8001;SDS011;4046;48.774;8.732;2022-12-08T15:39:46;1.40;;;1.30;;
8001;SDS011;4046;48.774;8.732;2022-12-08T15:42:12;1.60;;;1.50;;
8001;SDS011;4046;48.774;8.732;2022-12-08T15:44:39;1.53;;;1.43;;
8001;SDS011;4046;48.774;8.732;2022-12-08T15:47:07;1.30;;;1.10;;
8001;SDS011;4046;48.774;8.732;2022-12-08T15:49:39;1.30;;;1.20;;
8001;SDS011;4046;48.774;8.732;2022-12-08T15:52:10;1.47;;;1.37;;
8001;SDS011;4046;48.774;8.732;2022-12-08T15:54:39;1.30;;;1.20;;
8001;SDS011;4046;48.774;8.732;2022-12-08T15:57:05;1.80;;;1.60;;
8001;SDS011;4046;48.774;8.732;2022-12-08T15:59:42;1.40;;;1.30;;
8001;SDS011;4046;48.774;8.732;2022-12-08T16:02:10;1.30;;;1.10;;
8001;SDS011;4046;48.774;8.732;2022-12-08T16:04:37;1.33;;;1.23;;
8001;SDS011;4046;48.774;8.732;2022-12-08T16:07:04;1.23;;;1.13;;
8001;SDS011;4046;48.774;8.732;2022-12-08T16:09:32;1.43;;;1.33;;
8001;SDS011;4046;48.774;8.732;2022-12-08T16:12:03;1.30;;;1.20;;
8001;SDS011;4046;48.774;8.732;2022-12-08T16:14:49;1.43;;;1.33;;
8001;SDS011;4046;48.774;8.732;2022-12-08T16:17:16;1.37;;;1.23;;
8001;SDS011;4046;48.774;8.732;2022-12-08T16:19:42;1.43;;;1.33;;
8001;SDS011;4046;48.774;8.732;2022-12-08T16:22:19;1.60;;;1.50;;
8001;SDS011;4046;48.774;8.732;2022-12-08T16:24:50;1.70;;;1.37;;
8001;SDS011;4046;48.774;8.732;2022-12-08T16:27:21;1.53;;;1.43;;
8001;SDS011;4046;48.774;8.732;2022-12-08T16:29:49;1.40;;;1.30;;
8001;SDS011;4046;48.774;8.732;2022-12-08T16:32:15;1.43;;;1.33;;
8001;SDS011;4046;48.774;8.732;2022-12-08T16:34:42;1.27;;;1.13;;
8001;SDS011;4046;48.774;8.732;2022-12-08T16:37:20;1.40;;;1.20;;
8001;SDS011;4046;48.774;8.732;2022-12-08T16:39:47;1.50;;;1.40;;
8001;SDS011;4046;48.774;8.732;2022-12-08T16:42:16;1.50;;;1.40;;
8001;SDS011;4046;48.774;8.732;2022-12-08T16:45:03;1.50;;;1.40;;
8001;SDS011;4046;48.774;8.732;2022-12-08T16:47:43;1.93;;;1.27;;
8001;SDS011;4046;48.774;8.732;2022-12-08T16:50:12;4.90;;;2.00;;
8001;SDS011;4046;48.774;8.732;2022-12-08T16:52:41;4.70;;;2.20;;
8001;SDS011;4046;48.774;8.732;2022-12-08T16:55:09;3.30;;;2.57;;
8001;SDS011;4046;48.774;8.732;2022-12-08T16:57:38;6.57;;;2.60;;
8001;SDS011;4046;48.774;8.732;2022-12-08T17:00:06;3.60;;;2.20;;
8001;SDS011;4046;48.774;8.732;2022-12-08T17:02:35;4.77;;;2.13;;